Time;durP1;ratioP1;P1;durP2;ratioP2;P2;SDS_P1;SDS_P2;PMS_P1;PMS_P2;Temp;Humidity;BMP_temperature;BMP_pressure;BME280_temperature;BME280_humidity;BME280_pressure;Samples;Min_cycle;Max_cycle;Signal;HPM_P1;HPM_P2
2022/09/05 00:02:27;;;;;;;2.72;2.53;;;;;;;17.37;77.32;98649.78;6242988;23;20074;-84
2022/09/05 00:05:24;;;;;;;3.30;2.60;;;;;;;17.30;77.30;98650.94;6222299;23;20426;-85
2022/09/05 00:08:26;;;;;;;2.75;2.55;;;;;;;17.16;77.50;98658.31;6243143;23;20333;-84
2022/09/05 00:11:20;;;;;;;2.65;2.45;;;;;;;17.06;77.70;98650.91;6221177;23;20074;-84
2022/09/05 00:14:36;;;;;;;2.50;2.30;;;;;;;17.09;77.80;98658.44;6220950;23;20016;-84
2022/09/05 00:17:56;;;;;;;2.47;2.25;;;;;;;17.06;77.98;98652.75;6243341;23;20016;-85
2022/09/05 00:21:14;;;;;;;2.22;2.03;;;;;;;17.07;78.17;98651.72;6201355;23;20134;-85
2022/09/05 00:24:37;;;;;;;2.33;2.13;;;;;;;16.99;78.36;98660.00;6220033;23;20030;-84
2022/09/05 00:27:54;;;;;;;2.50;2.30;;;;;;;16.93;78.47;98650.31;6243186;23;20018;-84
2022/09/05 00:30:21;;;;;;;2.47;2.28;;;;;;;16.88;78.65;98652.84;6213362;23;20074;-84
2022/09/05 00:33:27;;;;;;;2.53;2.33;;;;;;;16.91;78.48;98652.38;6242515;23;20112;-84
2022/09/05 00:36:21;;;;;;;3.10;2.38;;;;;;;16.89;78.58;98651.78;6213683;23;20016;-84
2022/09/05 00:39:33;;;;;;;2.60;1.98;;;;;;;16.95;78.64;98653.53;6242691;23;20082;-83
2022/09/05 00:42:17;;;;;;;2.50;2.15;;;;;;;16.91;78.41;98647.88;6242402;23;20078;-84
2022/09/05 00:45:23;;;;;;;2.70;2.50;;;;;;;16.90;78.72;98662.16;6242818;23;20016;-84
2022/09/05 00:48:06;;;;;;;2.30;2.10;;;;;;;16.89;78.38;98651.78;6230131;23;20047;-84
2022/09/05 00:51:16;;;;;;;1.80;1.70;;;;;;;17.00;78.33;98666.91;6242815;23;20024;-84
2022/09/05 00:54:23;;;;;;;1.77;1.67;;;;;;;17.03;77.75;98663.78;6241914;23;20013;-85
2022/09/05 00:57:40;;;;;;;1.80;1.70;;;;;;;17.03;77.28;98667.28;6218605;23;20672;-85
2022/09/05 01:00:22;;;;;;;1.65;1.55;;;;;;;17.05;77.04;98664.41;6243466;23;20778;-84
2022/09/05 01:03:32;;;;;;;1.60;1.50;;;;;;;17.04;76.69;98676.03;6243294;23;20016;-84
2022/09/05 01:06:46;;;;;;;1.70;1.60;;;;;;;17.02;77.00;98680.75;6243128;23;20070;-84
2022/09/05 01:09:43;;;;;;;1.80;1.70;;;;;;;16.98;76.70;98677.75;6242813;23;20119;-84
2022/09/05 01:12:44;;;;;;;1.50;1.40;;;;;;;17.03;77.25;98674.41;6242700;23;20062;-84
2022/09/05 01:15:27;;;;;;;1.70;1.60;;;;;;;16.97;77.32;98677.94;6242572;23;20884;-85
2022/09/05 01:18:04;;;;;;;1.92;1.80;;;;;;;16.93;76.80;98671.50;6243587;23;20027;-84
2022/09/05 01:21:09;;;;;;;1.88;1.77;;;;;;;16.94;77.07;98675.78;6216375;23;20063;-84
2022/09/05 01:24:20;;;;;;;2.03;1.58;;;;;;;16.92;76.94;98670.72;6211165;23;20020;-84
2022/09/05 01:27:35;;;;;;;1.77;1.67;;;;;;;16.91;77.04;98669.06;6190458;23;20020;-84
2022/09/05 01:30:50;;;;;;;1.88;1.77;;;;;;;16.88;76.63;98668.72;6242434;23;20020;-84
2022/09/05 01:34:00;;;;;;;1.60;1.50;;;;;;;16.88;76.73;98676.69;6216377;23;20022;-84
2022/09/05 01:36:49;;;;;;;1.50;1.40;;;;;;;16.92;76.81;98675.19;6239829;23;20016;-83
2022/09/05 01:39:53;;;;;;;1.92;1.75;;;;;;;16.90;76.71;98664.81;6242589;23;20016;-84
2022/09/05 01:43:01;;;;;;;1.52;1.42;;;;;;;16.91;76.88;98670.91;6220460;23;20092;-84
2022/09/05 01:45:50;;;;;;;1.58;1.48;;;;;;;16.90;76.65;98669.31;6243627;23;20024;-84
2022/09/05 01:48:38;;;;;;;1.48;1.38;;;;;;;16.98;76.54;98676.94;6216504;23;20074;-85
2022/09/05 01:51:25;;;;;;;1.30;1.20;;;;;;;16.97;76.41;98678.78;6242713;23;20102;-85
2022/09/05 01:54:33;;;;;;;1.58;1.48;;;;;;;16.95;77.10;98677.38;6242860;23;20016;-84
2022/09/05 01:57:27;;;;;;;1.77;1.67;;;;;;;16.92;76.95;98672.56;6242567;23;20450;-84
2022/09/05 02:00:43;;;;;;;1.30;1.20;;;;;;;16.91;77.08;98670.91;6243075;23;20042;-84
2022/09/05 02:03:32;;;;;;;1.60;1.50;;;;;;;16.88;77.15;98674.03;6208425;23;20024;-84
2022/09/05 02:06:34;;;;;;;1.58;1.48;;;;;;;16.79;77.63;98665.56;6242556;23;20024;-84
2022/09/05 02:09:22;;;;;;;1.42;1.33;;;;;;;16.75;78.01;98669.72;6242447;23;20016;-84
2022/09/05 02:11:57;;;;;;;2.00;1.90;;;;;;;16.63;78.31;98672.31;6216523;23;20040;-84
2022/09/05 02:14:36;;;;;;;1.80;1.70;;;;;;;16.58;78.62;98665.03;6243178;23;20296;-84
2022/09/05 02:17:40;;;;;;;1.50;1.40;;;;;;;16.65;78.54;98670.22;6215820;23;20388;-84
2022/09/05 02:20:24;;;;;;;1.30;1.20;;;;;;;16.71;78.57;98671.19;6217884;23;20074;-84
2022/09/05 02:23:33;;;;;;;1.33;1.23;;;;;;;16.68;77.57;98667.16;6242028;23;20012;-84
2022/09/05 02:26:27;;;;;;;1.65;1.55;;;;;;;16.59;78.13;98665.81;6241989;22;20346;-84
2022/09/05 02:29:24;;;;;;;1.50;1.40;;;;;;;16.57;78.45;98673.19;6243532;23;20039;-84
2022/09/05 02:32:18;;;;;;;1.83;1.70;;;;;;;16.54;78.35;98665.69;6242224;23;20024;-83
2022/09/05 02:35:08;;;;;;;1.75;1.65;;;;;;;16.57;78.39;98663.41;6214695;23;20082;-84
2022/09/05 02:37:50;;;;;;;1.40;1.30;;;;;;;16.60;78.31;98657.66;6238046;23;20047;-84
2022/09/05 02:40:57;;;;;;;1.05;1.05;;;;;;;16.63;78.30;98664.34;6242177;23;20107;-84
2022/09/05 02:43:59;;;;;;;1.40;1.30;;;;;;;16.67;78.44;98662.84;6241962;23;20095;-84
2022/09/05 02:47:08;;;;;;;1.60;1.50;;;;;;;16.56;77.37;98655.69;6242335;23;20103;-83
2022/09/05 02:50:04;;;;;;;1.60;1.50;;;;;;;16.49;78.60;98660.25;6242565;23;20016;-84
2022/09/05 02:52:53;;;;;;;1.60;1.50;;;;;;;16.46;78.71;98661.53;6242525;23;20099;-84
2022/09/05 02:56:15;;;;;;;1.40;1.30;;;;;;;16.49;78.69;98654.97;6243400;23;20028;-83
2022/09/05 02:59:43;;;;;;;1.10;1.10;;;;;;;16.56;78.42;98653.84;6243714;23;20047;-84
2022/09/05 03:02:41;;;;;;;1.30;1.20;;;;;;;16.57;78.14;98660.75;6244236;23;20020;-83
2022/09/05 03:05:35;;;;;;;1.17;1.10;;;;;;;16.56;78.41;98645.91;6243394;23;20023;-84
2022/09/05 03:08:46;;;;;;;1.40;1.30;;;;;;;16.51;77.62;98658.22;6244218;23;20016;-84
2022/09/05 03:11:43;;;;;;;1.40;1.30;;;;;;;16.44;76.99;98663.59;6217457;23;20095;-84
2022/09/05 03:15:01;;;;;;;1.30;1.20;;;;;;;16.47;77.17;98663.13;6229474;23;20052;-84
2022/09/05 03:18:30;;;;;;;1.10;1.10;;;;;;;16.46;77.43;98663.34;6216350;23;20081;-84
2022/09/05 03:21:16;;;;;;;1.50;1.23;;;;;;;16.44;77.37;98653.00;6242060;23;20066;-84
2022/09/05 03:24:31;;;;;;;1.23;1.13;;;;;;;16.44;77.80;98660.13;6243046;23;20365;-84
2022/09/05 03:28:09;;;;;;;1.20;1.10;;;;;;;16.43;77.61;98655.84;6243876;23;20090;-85
2022/09/05 03:31:26;;;;;;;1.20;1.10;;;;;;;16.35;78.00;98659.63;6240189;23;20081;-84
2022/09/05 03:34:23;;;;;;;1.20;1.10;;;;;;;16.31;78.20;98661.94;6216531;23;20023;-83
2022/09/05 03:37:32;;;;;;;1.27;1.17;;;;;;;16.30;78.08;98655.00;6210490;23;20016;-83
2022/09/05 03:40:27;;;;;;;1.30;1.20;;;;;;;16.23;78.20;98656.91;6242385;23;20020;-83
2022/09/05 03:42:53;;;;;;;1.20;1.10;;;;;;;16.22;78.45;98644.72;6240762;23;20410;-84
2022/09/05 03:46:07;;;;;;;1.60;1.50;;;;;;;16.12;78.56;98652.34;6215684;23;20024;-84
2022/09/05 03:49:00;;;;;;;1.48;1.38;;;;;;;16.11;78.48;98653.41;6242947;23;20500;-84
2022/09/05 03:52:16;;;;;;;1.50;1.40;;;;;;;15.94;78.98;98653.16;6242963;23;20028;-84
2022/09/05 03:55:53;;;;;;;1.58;1.33;;;;;;;16.00;78.28;98651.47;6242311;23;20018;-83
2022/09/05 03:59:24;;;;;;;1.45;1.35;;;;;;;15.98;78.49;98658.84;6243156;23;20781;-84
2022/09/05 04:02:03;;;;;;;1.25;1.15;;;;;;;15.99;78.49;98647.22;6215427;23;20086;-83
2022/09/05 04:05:03;;;;;;;1.50;1.40;;;;;;;15.95;78.11;98644.22;6193944;23;20031;-82
2022/09/05 04:08:19;;;;;;;1.30;1.20;;;;;;;15.92;77.79;98634.06;6242277;23;20115;-84
2022/09/05 04:11:07;;;;;;;3.10;1.42;;;;;;;15.86;78.71;98639.44;6242507;23;20042;-83
2022/09/05 04:14:01;;;;;;;1.60;1.50;;;;;;;15.82;78.72;98641.72;6216706;23;20020;-84
2022/09/05 04:16:44;;;;;;;1.50;1.40;;;;;;;15.73;79.09;98635.91;6243143;23;20391;-84
2022/09/05 04:19:33;;;;;;;1.98;1.80;;;;;;;15.70;79.33;98636.34;6242797;23;20016;-84
2022/09/05 04:22:24;;;;;;;1.70;1.60;;;;;;;15.66;78.91;98635.19;6243015;23;20027;-85
2022/09/05 04:25:30;;;;;;;2.03;1.83;;;;;;;15.56;79.17;98634.84;6241979;22;20016;-84
2022/09/05 04:28:47;;;;;;;1.75;1.65;;;;;;;15.57;79.33;98636.44;6243123;23;20024;-84
2022/09/05 04:31:36;;;;;;;1.65;1.50;;;;;;;15.51;79.04;98624.09;6242547;23;20543;-84
2022/09/05 04:34:33;;;;;;;1.50;1.40;;;;;;;15.57;79.43;98633.81;6242449;23;20493;-85
2022/09/05 04:37:06;;;;;;;1.30;1.20;;;;;;;15.57;79.43;98641.72;6238174;23;20615;-84
2022/09/05 04:39:34;;;;;;;1.50;1.40;;;;;;;15.51;78.88;98645.25;6242061;23;20017;-84
2022/09/05 04:42:04;;;;;;;1.60;1.50;;;;;;;15.56;79.43;98649.88;6242533;23;20028;-84
2022/09/05 04:44:42;;;;;;;1.80;1.70;;;;;;;15.53;79.04;98653.75;6242545;23;20016;-83
2022/09/05 04:47:29;;;;;;;2.35;1.80;;;;;;;15.48;78.79;98662.38;6215992;23;20016;-83
2022/09/05 04:50:05;;;;;;;1.80;1.70;;;;;;;15.44;78.79;98657.72;6215356;23;20016;-84
2022/09/05 04:52:47;;;;;;;1.50;1.40;;;;;;;15.50;79.38;98672.72;6242195;23;20016;-84
2022/09/05 04:55:19;;;;;;;1.50;1.40;;;;;;;15.46;79.76;98676.81;6215620;23;20314;-84
2022/09/05 04:58:09;;;;;;;2.05;1.38;;;;;;;15.50;79.49;98675.34;6241714;23;20095;-83
2022/09/05 05:00:59;;;;;;;1.63;1.25;;;;;;;15.47;79.82;98686.34;6242014;23;20016;-84
2022/09/05 05:03:47;;;;;;;1.30;1.20;;;;;;;15.53;79.69;98688.13;6242199;23;20091;-83
2022/09/05 05:07:09;;;;;;;2.05;1.73;;;;;;;15.52;79.02;98681.22;6240979;23;20024;-83
2022/09/05 05:09:55;;;;;;;1.48;1.38;;;;;;;15.57;79.41;98681.38;6214688;23;20043;-83
2022/09/05 05:13:04;;;;;;;1.25;1.15;;;;;;;15.61;79.14;98682.59;6241680;23;20115;-83
2022/09/05 05:16:01;;;;;;;1.80;1.60;;;;;;;15.61;79.38;98677.28;6218800;23;20089;-83
2022/09/05 05:19:00;;;;;;;1.98;1.83;;;;;;;15.52;79.86;98691.78;6241370;23;20055;-84
2022/09/05 05:21:52;;;;;;;1.77;1.67;;;;;;;15.56;79.52;98692.19;6241856;23;20020;-83
2022/09/05 05:24:41;;;;;;;1.30;1.20;;;;;;;15.64;79.25;98698.03;6241445;22;20012;-83
2022/09/05 05:27:31;;;;;;;1.35;1.25;;;;;;;15.69;78.77;98690.25;6241714;23;20046;-83
2022/09/05 05:30:10;;;;;;;1.50;1.40;;;;;;;15.72;78.94;98697.75;6216137;23;20016;-83
2022/09/05 05:32:51;;;;;;;2.27;1.30;;;;;;;15.75;78.74;98707.09;6241839;23;20049;-83
2022/09/05 05:35:27;;;;;;;1.40;1.30;;;;;;;15.76;79.32;98704.22;6241894;23;20016;-84
2022/09/05 05:38:15;;;;;;;1.45;1.35;;;;;;;15.75;79.29;98709.72;6237191;23;20565;-84
2022/09/05 05:40:59;;;;;;;1.38;1.27;;;;;;;15.76;79.03;98706.84;6241570;23;20012;-83
2022/09/05 05:43:40;;;;;;;1.35;1.25;;;;;;;15.82;78.88;98709.66;6242407;23;20069;-83
2022/09/05 05:46:28;;;;;;;1.73;1.63;;;;;;;15.82;78.82;98715.75;6241531;23;20022;-83
2022/09/05 05:49:17;;;;;;;2.03;1.70;;;;;;;15.89;79.15;98727.09;6242786;23;20016;-84
2022/09/05 05:52:04;;;;;;;1.48;1.38;;;;;;;15.93;78.93;98716.88;6215378;23;20016;-84
2022/09/05 05:55:16;;;;;;;1.45;1.35;;;;;;;16.09;78.45;98734.84;6235466;23;20420;-83
2022/09/05 05:58:49;;;;;;;1.45;1.30;;;;;;;16.15;78.61;98723.38;6242048;23;20453;-84
2022/09/05 06:01:52;;;;;;;1.55;1.45;;;;;;;16.23;78.07;98730.22;6242354;23;20013;-84
2022/09/05 06:04:59;;;;;;;2.20;2.00;;;;;;;16.25;77.75;98728.16;6243177;23;20012;-83
2022/09/05 06:08:09;;;;;;;1.50;1.40;;;;;;;16.36;77.98;98729.25;6217682;23;20349;-84
2022/09/05 06:11:46;;;;;;;2.13;1.98;;;;;;;16.46;77.94;98714.47;6194894;23;20023;-84
2022/09/05 06:15:43;;;;;;;2.42;1.60;;;;;;;16.62;77.45;98726.31;6241839;23;20477;-84
2022/09/05 06:18:38;;;;;;;2.40;2.20;;;;;;;16.72;77.30;98717.84;6182901;23;20050;-85
2022/09/05 06:21:55;;;;;;;1.75;1.63;;;;;;;16.93;77.03;98724.50;6241635;23;20460;-85
2022/09/05 06:25:17;;;;;;;1.67;1.52;;;;;;;17.11;76.14;98727.09;6241614;22;20449;-85
2022/09/05 06:28:16;;;;;;;2.35;2.10;;;;;;;17.26;75.38;98730.13;6215058;23;20040;-85
2022/09/05 06:31:20;;;;;;;1.88;1.73;;;;;;;17.37;74.84;98732.00;6244160;23;20020;-85
2022/09/05 06:34:25;;;;;;;2.83;2.60;;;;;;;17.48;74.52;98729.59;6217487;23;20020;-85
2022/09/05 06:37:39;;;;;;;2.17;1.88;;;;;;;17.75;73.89;98738.78;6240838;23;20046;-86
2022/09/05 06:40:20;;;;;;;1.70;1.60;;;;;;;17.94;73.39;98736.00;6217033;23;20047;-85
2022/09/05 06:43:22;;;;;;;2.60;2.40;;;;;;;18.00;72.45;98727.13;6217029;23;20039;-87
2022/09/05 06:45:49;;;;;;;3.17;2.97;;;;;;;18.15;72.77;98735.41;6218398;23;20016;-86
2022/09/05 06:49:16;;;;;;;2.90;2.20;;;;;;;18.37;72.68;98739.06;6242689;23;20397;-86
2022/09/05 06:52:13;;;;;;;2.22;1.60;;;;;;;18.73;71.88;98747.78;6182849;23;20107;-86
2022/09/05 06:55:36;;;;;;;2.38;2.17;;;;;;;18.87;70.60;98735.81;6242421;23;20040;-86
2022/09/05 06:58:17;;;;;;;2.20;2.00;;;;;;;18.95;70.93;98735.44;6218397;23;20062;-86
2022/09/05 07:00:52;;;;;;;2.55;2.35;;;;;;;19.14;69.70;98745.88;6243907;23;20009;-87
2022/09/05 07:03:29;;;;;;;2.45;2.20;;;;;;;19.35;69.92;98752.34;6243816;23;20020;-86
2022/09/05 07:06:13;;;;;;;2.10;1.90;;;;;;;19.60;70.53;98750.13;6244763;23;20106;-87
2022/09/05 07:09:27;;;;;;;2.60;2.40;;;;;;;19.61;68.82;98750.94;6244058;23;20016;-86
2022/09/05 07:12:09;;;;;;;2.60;2.40;;;;;;;19.88;68.72;98751.91;6191962;23;20012;-87
2022/09/05 07:14:56;;;;;;;2.60;2.40;;;;;;;20.09;68.43;98753.00;6216199;23;20477;-86
2022/09/05 07:17:43;;;;;;;3.05;2.85;;;;;;;20.13;67.33;98758.63;6244529;23;20016;-86
2022/09/05 07:20:46;;;;;;;2.80;2.60;;;;;;;20.25;67.35;98754.00;6244598;23;20541;-87
2022/09/05 07:23:46;;;;;;;4.30;3.13;;;;;;;20.40;66.65;98758.75;6216755;23;20103;-87
2022/09/05 07:26:41;;;;;;;3.42;3.13;;;;;;;20.56;66.24;98758.69;6221327;23;20016;-88
2022/09/05 07:29:36;;;;;;;2.90;2.67;;;;;;;20.71;65.82;98760.75;6215814;23;20024;-87
2022/09/05 07:32:07;;;;;;;2.78;2.58;;;;;;;20.95;64.44;98753.28;6245275;23;20058;-85
2022/09/05 07:34:37;;;;;;;2.08;1.95;;;;;;;21.21;63.93;98754.34;6217856;23;20043;-88
2022/09/05 07:37:14;;;;;;;3.88;2.40;;;;;;;21.33;63.58;98752.34;6239279;23;20024;-85
2022/09/05 07:40:08;;;;;;;2.25;2.05;;;;;;;21.48;61.63;98754.34;6243421;23;20129;-86
2022/09/05 07:43:34;;;;;;;2.35;2.08;;;;;;;21.70;62.41;98740.88;6242738;23;20038;-89
2022/09/05 07:46:22;;;;;;;2.58;2.38;;;;;;;21.83;61.89;98755.66;6218007;23;20445;-88
2022/09/05 07:48:52;;;;;;;2.30;2.10;;;;;;;21.99;62.31;98751.25;6216889;23;20016;-85
2022/09/05 07:51:26;;;;;;;2.97;2.78;;;;;;;22.03;60.03;98761.16;6244396;23;20051;-89
2022/09/05 07:54:23;;;;;;;2.20;2.10;;;;;;;22.13;61.73;98755.09;6244597;23;20023;-83
2022/09/05 07:57:16;;;;;;;2.40;2.20;;;;;;;22.28;61.88;98741.03;6242270;23;20050;-88
2022/09/05 08:00:18;;;;;;;2.25;2.10;;;;;;;22.43;60.92;98746.41;6216745;23;20016;-89
2022/09/05 08:03:11;;;;;;;2.40;2.20;;;;;;;22.54;59.31;98740.06;6243905;23;20026;-88
2022/09/05 08:05:44;;;;;;;2.67;2.47;;;;;;;22.50;60.19;98739.00;6244940;23;20040;-87
2022/09/05 08:08:20;;;;;;;2.40;2.20;;;;;;;22.52;59.76;98747.53;6217136;23;20056;-88
2022/09/05 08:10:54;;;;;;;3.25;2.85;;;;;;;22.56;58.90;98742.50;6218634;23;20342;-89
2022/09/05 08:13:41;;;;;;;2.50;2.30;;;;;;;22.73;59.49;98747.59;6221485;23;20020;-87
2022/09/05 08:16:19;;;;;;;3.05;2.28;;;;;;;22.71;59.63;98740.66;6193119;23;20102;-87
2022/09/05 08:18:57;;;;;;;2.35;2.15;;;;;;;22.84;58.50;98742.03;6245456;23;20051;-87
2022/09/05 08:21:45;;;;;;;2.53;2.22;;;;;;;23.05;58.37;98740.25;6244507;23;20055;-89
2022/09/05 08:24:27;;;;;;;2.85;2.65;;;;;;;23.09;57.76;98738.66;6218163;23;20379;-87
2022/09/05 08:27:15;;;;;;;2.40;2.20;;;;;;;23.19;57.50;98738.66;6218027;23;20047;-90
2022/09/05 08:29:52;;;;;;;2.75;2.55;;;;;;;23.20;57.99;98747.47;6243652;23;20020;-88
2022/09/05 08:32:52;;;;;;;2.60;2.40;;;;;;;23.34;56.48;98735.19;6221933;23;20035;-90
2022/09/05 08:35:58;;;;;;;2.42;2.22;;;;;;;23.61;56.63;98745.63;6222313;23;20034;-85
2022/09/05 08:38:46;;;;;;;2.35;2.25;;;;;;;23.76;57.53;98740.31;6223551;23;20077;-86
2022/09/05 08:42:16;;;;;;;2.65;2.10;;;;;;;23.93;55.73;98741.88;6242679;23;20102;-86
2022/09/05 08:45:11;;;;;;;2.55;2.35;;;;;;;24.00;55.12;98735.16;6184529;23;20020;-87
2022/09/05 08:48:33;;;;;;;2.45;2.25;;;;;;;24.08;55.74;98733.00;6242215;23;20099;-88
2022/09/05 08:51:39;;;;;;;2.60;2.40;;;;;;;24.06;55.12;98729.81;6172690;23;20047;-86
2022/09/05 08:54:28;;;;;;;2.58;2.38;;;;;;;24.13;55.94;98731.13;6216836;23;20020;-86
2022/09/05 08:57:50;;;;;;;2.38;2.28;;;;;;;24.19;54.47;98722.00;6216345;23;20016;-86
2022/09/05 09:00:19;;;;;;;2.30;2.10;;;;;;;24.41;54.05;98724.34;6217446;23;20016;-88
2022/09/05 09:03:05;;;;;;;2.58;2.38;;;;;;;24.56;53.50;98720.78;6218895;23;20478;-87
2022/09/05 09:05:53;;;;;;;2.28;2.10;;;;;;;24.82;53.14;98718.78;6216049;23;20020;-87
2022/09/05 09:09:05;;;;;;;2.00;1.90;;;;;;;24.83;52.29;98723.88;6220353;23;20103;-86
2022/09/05 09:12:00;;;;;;;2.13;2.03;;;;;;;25.03;52.85;98724.84;6216950;23;20504;-87
2022/09/05 09:15:28;;;;;;;3.20;2.13;;;;;;;25.12;51.49;98717.81;6215734;23;20016;-87
2022/09/05 09:17:55;;;;;;;2.08;1.90;;;;;;;25.28;50.90;98713.13;6210170;23;20026;-88
2022/09/05 09:21:01;;;;;;;2.03;1.90;;;;;;;25.52;51.46;98718.56;6242621;23;20016;-89
2022/09/05 09:23:50;;;;;;;2.63;2.42;;;;;;;25.46;48.98;98703.59;6190470;23;20434;-85
2022/09/05 09:26:36;;;;;;;2.20;2.10;;;;;;;25.38;49.63;98705.00;6243161;22;20371;-88
2022/09/05 09:29:11;;;;;;;2.55;2.28;;;;;;;25.49;49.73;98705.69;6242997;23;20016;-88
2022/09/05 09:32:09;;;;;;;2.10;1.90;;;;;;;25.56;49.71;98707.00;6242412;23;20047;-87
2022/09/05 09:35:19;;;;;;;2.47;2.28;;;;;;;25.51;47.73;98708.94;6216201;23;20639;-88
2022/09/05 09:38:20;;;;;;;2.05;1.85;;;;;;;25.74;48.30;98707.41;6210675;23;20629;-86
2022/09/05 09:41:25;;;;;;;1.80;1.70;;;;;;;25.92;48.40;98703.19;6216003;23;20028;-87
2022/09/05 09:44:14;;;;;;;2.00;1.90;;;;;;;26.04;48.95;98706.28;6243028;23;20074;-90
2022/09/05 09:46:48;;;;;;;2.90;2.10;;;;;;;25.86;47.82;98703.25;6215621;23;20028;-88
2022/09/05 09:49:38;;;;;;;2.47;2.20;;;;;;;25.95;47.84;98694.56;6215945;23;20381;-87
2022/09/05 09:52:33;;;;;;;1.92;1.70;;;;;;;26.23;47.78;98699.06;6241847;23;20020;-89
2022/09/05 09:55:51;;;;;;;2.00;1.90;;;;;;;26.20;47.19;98691.56;6242631;23;20043;-86
2022/09/05 09:58:30;;;;;;;2.05;1.85;;;;;;;26.12;46.84;98692.22;6187434;23;20070;-87
2022/09/05 10:01:20;;;;;;;1.95;1.85;;;;;;;26.22;47.32;98692.09;6241588;23;20016;-86
2022/09/05 10:04:43;;;;;;;2.10;1.90;;;;;;;26.35;47.20;98691.41;6196000;23;20012;-88
2022/09/05 10:08:32;;;;;;;2.05;1.95;;;;;;;26.44;45.79;98683.50;6217512;23;20052;-90
2022/09/05 10:11:54;;;;;;;1.80;1.70;;;;;;;26.58;45.95;98683.59;6217633;23;20099;-87
2022/09/05 10:15:08;;;;;;;1.63;1.50;;;;;;;26.72;46.30;98675.59;6245509;23;20016;-86
2022/09/05 10:18:47;;;;;;;1.50;1.40;;;;;;;27.00;45.40;98674.66;6244953;23;20062;-88
2022/09/05 10:21:26;;;;;;;2.00;1.90;;;;;;;26.96;44.84;98670.94;6240738;23;20048;-88
2022/09/05 10:24:52;;;;;;;1.67;1.58;;;;;;;27.02;44.04;98655.50;6244074;23;20070;-85
2022/09/05 10:27:51;;;;;;;2.25;2.10;;;;;;;26.97;44.87;98647.50;6196389;23;20421;-88
2022/09/05 10:30:27;;;;;;;2.30;2.10;;;;;;;27.19;46.28;98655.81;6244843;23;20023;-85
2022/09/05 10:33:28;;;;;;;1.85;1.75;;;;;;;27.27;43.67;98662.41;6243539;23;20024;-87
2022/09/05 10:36:22;;;;;;;2.03;1.83;;;;;;;27.16;45.97;98656.38;6214681;23;20410;-89
2022/09/05 10:39:15;;;;;;;2.50;2.30;;;;;;;27.03;46.04;98654.41;6218906;23;20012;-87
2022/09/05 10:41:53;;;;;;;2.40;2.17;;;;;;;27.07;46.24;98652.78;6243056;23;20016;-87
2022/09/05 10:44:39;;;;;;;1.70;1.60;;;;;;;26.86;46.77;98644.97;6244276;23;20016;-89
2022/09/05 10:47:56;;;;;;;1.90;1.80;;;;;;;26.57;47.19;98644.31;6218599;23;20035;-88
2022/09/05 10:50:52;;;;;;;;;;;;;;;26.22;47.88;98642.91;6245144;23;20453;-90
2022/09/05 10:54:01;;;;;;;2.20;2.00;;;;;;;26.07;46.89;98643.88;6217611;23;19917;-86
2022/09/05 10:56:38;;;;;;;2.72;2.53;;;;;;;25.78;47.33;98642.06;6218332;23;20016;-86
2022/09/05 10:59:19;;;;;;;2.30;2.10;;;;;;;25.67;47.65;98621.75;6245587;23;20016;-88
2022/09/05 11:02:21;;;;;;;;;;;;;;;25.63;48.65;98632.25;6225922;23;20016;-86
2022/09/05 11:05:21;;;;;;;2.03;1.90;;;;;;;25.55;49.04;98626.69;6220293;23;19915;-87
2022/09/05 11:08:09;;;;;;;1.98;1.60;;;;;;;25.55;50.09;98632.06;6244471;23;20066;-92
2022/09/05 11:10:50;;;;;;;1.80;1.70;;;;;;;25.53;48.18;98628.88;6243989;23;20023;-87
2022/09/05 11:13:55;;;;;;;1.75;1.65;;;;;;;25.47;48.27;98622.75;6220292;23;20442;-86
2022/09/05 11:16:43;;;;;;;1.95;1.80;;;;;;;25.31;49.11;98622.13;6246501;23;20023;-86
2022/09/05 11:19:40;;;;;;;2.00;1.80;;;;;;;25.28;52.65;98609.25;6217659;23;20023;-86
2022/09/05 11:22:08;;;;;;;2.60;1.60;;;;;;;25.58;47.74;98604.66;6219282;23;20070;-87
2022/09/05 11:25:09;;;;;;;1.42;1.33;;;;;;;26.13;47.01;98610.47;6217314;23;20020;-87
2022/09/05 11:27:51;;;;;;;1.65;1.55;;;;;;;26.46;46.13;98611.41;6247185;23;20076;-84
2022/09/05 11:30:32;;;;;;;1.88;1.77;;;;;;;26.69;45.52;98604.38;6242834;23;20050;-85
2022/09/05 11:33:35;;;;;;;2.10;2.00;;;;;;;26.91;44.83;98603.72;6218249;23;20016;-90
2022/09/05 11:36:48;;;;;;;2.30;2.20;;;;;;;27.12;44.96;98596.16;6194484;23;20357;-92
2022/09/05 11:40:24;;;;;;;1.92;1.80;;;;;;;27.06;44.86;98600.03;6243538;23;20103;-88
2022/09/05 11:43:46;;;;;;;2.25;2.05;;;;;;;26.95;44.29;98599.38;6196422;23;20043;-88
2022/09/05 11:46:28;;;;;;;1.65;1.55;;;;;;;26.98;44.88;98595.28;6191870;23;20019;-88
2022/09/05 11:49:41;;;;;;;1.60;1.50;;;;;;;26.79;44.04;98598.81;6243769;23;20458;-88
2022/09/05 11:52:40;;;;;;;1.60;1.50;;;;;;;26.73;45.05;98597.28;6244876;23;20526;-86
2022/09/05 11:55:35;;;;;;;2.10;1.90;;;;;;;26.97;44.50;98588.31;6216990;23;20016;-86
2022/09/05 11:58:20;;;;;;;1.92;1.70;;;;;;;27.30;43.08;98595.28;6215952;23;20020;-86
2022/09/05 12:01:43;;;;;;;1.80;1.70;;;;;;;27.47;43.37;98592.84;6217424;23;20016;-87
2022/09/05 12:05:03;;;;;;;1.73;1.63;;;;;;;27.84;43.23;98599.16;6188206;23;20025;-87
2022/09/05 12:08:22;;;;;;;2.40;2.20;;;;;;;27.51;41.92;98593.00;6242754;23;20020;-86
2022/09/05 12:11:34;;;;;;;1.77;1.67;;;;;;;27.60;43.88;98602.00;6243193;23;20384;-88
2022/09/05 12:14:26;;;;;;;1.73;1.63;;;;;;;27.87;41.69;98587.75;6217276;23;20016;-88
2022/09/05 12:17:17;;;;;;;1.83;1.73;;;;;;;27.74;43.44;98593.97;6243743;23;20437;-86
2022/09/05 12:20:28;;;;;;;1.70;1.60;;;;;;;27.42;42.42;98590.22;6243579;23;20020;-87
2022/09/05 12:23:40;;;;;;;1.92;1.80;;;;;;;27.51;41.79;98586.84;6219358;23;20016;-88
2022/09/05 12:26:49;;;;;;;2.00;1.90;;;;;;;27.61;42.99;98579.34;6215680;23;20349;-86
2022/09/05 12:29:47;;;;;;;2.15;1.95;;;;;;;27.65;42.56;98587.63;6222027;23;20102;-88
2022/09/05 12:32:24;;;;;;;1.70;1.60;;;;;;;27.48;42.86;98583.66;6217155;23;20323;-88
2022/09/05 12:35:24;;;;;;;2.03;1.92;;;;;;;27.35;43.39;98578.22;6222094;23;20016;-88
2022/09/05 12:38:46;;;;;;;1.80;1.70;;;;;;;27.82;42.36;98577.06;6195921;23;20024;-88
2022/09/05 12:41:52;;;;;;;1.67;1.55;;;;;;;28.17;41.88;98572.03;6215914;23;20016;-88
2022/09/05 12:45:27;;;;;;;1.70;1.60;;;;;;;28.49;39.67;98569.19;6243030;23;20103;-87
2022/09/05 12:48:12;;;;;;;2.15;1.95;;;;;;;28.50;39.62;98560.00;6243039;23;20341;-91
2022/09/05 12:51:08;;;;;;;1.85;1.75;;;;;;;28.24;39.81;98572.41;6217157;23;20074;-88
2022/09/05 12:53:44;;;;;;;2.00;1.90;;;;;;;27.87;41.23;98563.50;6243780;23;20012;-89
2022/09/05 12:56:46;;;;;;;2.05;1.80;;;;;;;27.62;40.74;98564.00;6243346;23;20016;-90
2022/09/05 12:59:36;;;;;;;1.90;1.80;;;;;;;27.72;41.81;98555.75;6194788;23;20030;-87
2022/09/05 13:02:29;;;;;;;1.77;1.67;;;;;;;28.06;38.73;98549.88;6241595;23;20110;-88
2022/09/05 13:05:25;;;;;;;1.70;1.60;;;;;;;28.26;38.46;98544.06;6242889;23;20103;-86
2022/09/05 13:07:57;;;;;;;1.65;1.50;;;;;;;27.98;39.75;98543.31;6242636;23;20024;-87
2022/09/05 13:10:36;;;;;;;1.20;1.20;;;;;;;28.31;42.54;98545.84;6242091;23;20058;-87
2022/09/05 13:13:36;;;;;;;1.33;1.23;;;;;;;28.63;38.94;98536.75;6215672;23;20083;-86
2022/09/05 13:16:28;;;;;;;1.20;1.20;;;;;;;28.99;39.61;98531.28;6215154;23;20051;-87
2022/09/05 13:19:14;;;;;;;1.50;1.40;;;;;;;29.21;37.68;98532.31;6242534;23;20262;-88
2022/09/05 13:21:51;;;;;;;1.45;1.35;;;;;;;29.41;35.99;98534.50;6243104;23;20028;-87
2022/09/05 13:24:33;;;;;;;1.52;1.42;;;;;;;29.55;36.01;98524.38;6191332;22;20016;-87
2022/09/05 13:27:26;;;;;;;1.35;1.20;;;;;;;30.06;36.04;98516.69;6216607;23;20031;-85
2022/09/05 13:30:19;;;;;;;1.23;1.13;;;;;;;30.57;35.48;98510.47;6190655;23;20020;-87
2022/09/05 13:33:24;;;;;;;1.20;1.10;;;;;;;31.97;33.67;98506.16;6242157;23;20016;-88
2022/09/05 13:36:23;;;;;;;1.40;1.30;;;;;;;33.39;30.50;98510.31;6238432;23;20070;-85
2022/09/05 13:39:16;;;;;;;1.27;1.17;;;;;;;34.31;29.20;98509.66;6215838;23;20016;-84
2022/09/05 13:41:52;;;;;;;1.10;1.10;;;;;;;35.03;27.71;98504.22;6242988;23;20493;-83
2022/09/05 13:44:21;;;;;;;1.20;1.10;;;;;;;36.07;28.86;98496.50;6215821;23;20474;-86
2022/09/05 13:47:14;;;;;;;1.10;1.00;;;;;;;36.59;25.05;98489.75;6215548;23;20028;-86
2022/09/05 13:50:25;;;;;;;1.50;1.25;;;;;;;36.65;25.37;98493.75;6218680;23;20418;-87
2022/09/05 13:53:03;;;;;;;0.90;0.90;;;;;;;37.56;23.94;98481.22;6233322;23;20020;-84
2022/09/05 13:55:47;;;;;;;1.23;1.13;;;;;;;37.41;23.65;98485.66;6241219;23;20063;-84